createdAt,value
2023-02-07T00:00:22.439Z,75.29
2023-02-07T00:01:22.424Z,75.53
2023-02-07T00:02:22.512Z,75.40
2023-02-07T00:03:22.415Z,75.60
2023-02-07T00:04:22.417Z,75.81
2023-02-07T00:05:22.369Z,75.81
2023-02-07T00:06:22.405Z,75.81
2023-02-07T00:07:22.373Z,75.71
2023-02-07T00:08:22.385Z,74.98
2023-02-07T00:09:22.342Z,74.56
2023-02-07T00:10:22.343Z,74.70
2023-02-07T00:11:22.323Z,75.01
2023-02-07T00:12:22.334Z,75.22
2023-02-07T00:13:22.299Z,75.32
2023-02-07T00:14:22.283Z,75.43
2023-02-07T00:15:22.272Z,75.43
2023-02-07T00:16:22.315Z,75.43
2023-02-07T00:17:23.193Z,75.64
2023-02-07T00:18:22.252Z,75.53
2023-02-07T00:19:22.204Z,75.43
2023-02-07T00:20:22.222Z,75.43
2023-02-07T00:21:22.181Z,75.12
2023-02-07T00:22:22.206Z,74.91
2023-02-07T00:23:22.186Z,74.91
2023-02-07T00:24:22.175Z,74.70
2023-02-07T00:25:22.140Z,74.80
2023-02-07T00:26:22.177Z,75.01
2023-02-07T00:27:22.141Z,75.22
2023-02-07T00:28:22.244Z,75.22
2023-02-07T00:29:22.096Z,75.32
2023-02-07T00:30:22.136Z,75.32
2023-02-07T00:31:22.275Z,75.29
2023-02-07T00:32:22.116Z,75.09
2023-02-07T00:33:22.051Z,74.77
2023-02-07T00:34:22.096Z,74.87
2023-02-07T00:35:22.035Z,75.09
2023-02-07T00:36:22.069Z,75.19
2023-02-07T00:37:22.028Z,74.98
2023-02-07T00:38:22.022Z,74.98
2023-02-07T00:39:21.981Z,75.09
2023-02-07T00:40:21.994Z,74.98
2023-02-07T00:41:21.959Z,74.15
2023-02-07T00:42:22.652Z,74.35
2023-02-07T00:43:29.639Z,74.56
2023-02-07T00:44:22.977Z,74.35
2023-02-07T00:45:22.658Z,74.15
2023-02-07T00:46:21.983Z,74.25
2023-02-07T00:47:21.904Z,74.04
2023-02-07T00:48:21.924Z,73.94
2023-02-07T00:49:21.904Z,73.94
2023-02-07T00:50:23.359Z,73.73
2023-02-07T00:51:23.308Z,73.73
2023-02-07T00:52:21.884Z,73.94
2023-02-07T00:53:21.825Z,74.15
2023-02-07T00:54:21.857Z,74.25
2023-02-07T00:55:22.766Z,74.35
2023-02-07T00:56:21.893Z,74.56
2023-02-07T00:57:21.812Z,73.83
2023-02-07T00:58:22.051Z,73.83
2023-02-07T00:59:22.507Z,73.83
2023-02-07T01:00:21.785Z,74.25
2023-02-07T01:01:21.756Z,74.56
2023-02-07T01:02:21.758Z,74.66
2023-02-07T01:03:21.741Z,74.77
2023-02-07T01:04:21.775Z,74.98
2023-02-07T01:05:22.669Z,74.70
2023-02-07T01:06:21.728Z,74.91
2023-02-07T01:07:21.701Z,75.12
2023-02-07T01:08:21.702Z,75.22
2023-02-07T01:09:21.663Z,75.32
2023-02-07T01:10:21.685Z,75.12
2023-02-07T01:11:21.650Z,74.70
2023-02-07T01:12:21.673Z,74.60
2023-02-07T01:13:21.619Z,74.29
2023-02-07T01:14:21.635Z,74.29
2023-02-07T01:15:21.599Z,74.29
2023-02-07T01:16:21.615Z,74.29
2023-02-07T01:17:21.593Z,74.18
2023-02-07T01:18:21.597Z,74.49
2023-02-07T01:19:21.577Z,74.49
2023-02-07T01:20:21.570Z,74.60
2023-02-07T01:21:21.562Z,74.49
2023-02-07T01:22:21.558Z,74.60
2023-02-07T01:23:21.513Z,74.80
2023-02-07T01:24:21.653Z,74.91
2023-02-07T01:25:21.502Z,74.91
2023-02-07T01:26:21.503Z,74.80
2023-02-07T01:27:21.470Z,74.80
2023-02-07T01:28:21.520Z,74.80
2023-02-07T01:29:21.474Z,75.12
2023-02-07T01:30:21.471Z,75.32
2023-02-07T01:31:21.580Z,75.32
2023-02-07T01:32:21.613Z,75.43
2023-02-07T01:33:21.474Z,75.46
2023-02-07T01:34:21.420Z,75.57
2023-02-07T01:35:21.383Z,75.57
2023-02-07T01:36:21.402Z,75.67
2023-02-07T01:37:21.361Z,75.67
2023-02-07T01:38:21.413Z,75.67
2023-02-07T01:39:21.338Z,75.78
2023-02-07T01:40:21.368Z,75.78
2023-02-07T01:41:21.326Z,75.88
2023-02-07T01:42:21.333Z,76.20
2023-02-07T01:43:21.303Z,76.09
2023-02-07T01:44:21.308Z,76.20
2023-02-07T01:45:21.278Z,76.30
2023-02-07T01:46:21.317Z,76.40
2023-02-07T01:47:21.260Z,76.40
2023-02-07T01:48:21.276Z,76.40
2023-02-07T01:49:21.244Z,76.33
2023-02-07T01:50:21.230Z,76.23
2023-02-07T01:51:21.204Z,76.33
2023-02-07T01:52:21.210Z,76.54
2023-02-07T01:53:21.194Z,76.75
2023-02-07T01:54:21.201Z,76.86
2023-02-07T01:55:21.164Z,76.96
2023-02-07T01:56:31.258Z,76.96
2023-02-07T01:57:22.141Z,77.17
2023-02-07T01:58:21.169Z,77.37
2023-02-07T01:59:21.123Z,77.37
2023-02-07T02:00:23.241Z,77.31
2023-02-07T02:01:21.186Z,77.51
2023-02-07T02:02:28.189Z,77.62
2023-02-07T02:03:21.082Z,77.62
2023-02-07T02:04:21.099Z,77.62
2023-02-07T02:05:21.054Z,77.72
2023-02-07T02:06:21.069Z,77.83
2023-02-07T02:07:21.053Z,77.94
2023-02-07T02:08:21.036Z,78.04
2023-02-07T02:09:21.029Z,78.04
2023-02-07T02:10:21.031Z,78.14
2023-02-07T02:11:20.999Z,78.25
2023-02-07T02:12:21.063Z,78.35
2023-02-07T02:13:20.976Z,78.45
2023-02-07T02:14:21.029Z,78.45
2023-02-07T02:15:20.957Z,78.45
2023-02-07T02:16:20.980Z,78.45
2023-02-07T02:17:20.917Z,78.39
2023-02-07T02:18:20.929Z,78.45
2023-02-07T02:19:20.937Z,78.59
2023-02-07T02:20:20.976Z,78.70
2023-02-07T02:21:20.888Z,78.80
2023-02-07T02:22:20.880Z,78.80
2023-02-07T02:23:20.852Z,78.80
2023-02-07T02:24:20.895Z,78.80
2023-02-07T02:25:20.841Z,78.91
2023-02-07T02:26:20.854Z,79.01
2023-02-07T02:27:20.811Z,79.01
2023-02-07T02:28:21.057Z,79.01
2023-02-07T02:29:20.814Z,79.01
2023-02-07T02:30:20.826Z,79.01
2023-02-07T02:31:20.807Z,79.11
2023-02-07T02:32:20.795Z,79.22
2023-02-07T02:33:20.756Z,79.36
2023-02-07T02:34:20.763Z,79.57
2023-02-07T02:35:20.772Z,79.88
2023-02-07T02:36:20.732Z,79.99
2023-02-07T02:37:20.720Z,80.09
2023-02-07T02:38:20.732Z,80.20
2023-02-07T02:39:20.698Z,80.44
2023-02-07T02:40:20.756Z,80.76
2023-02-07T02:41:20.674Z,81.07
2023-02-07T02:42:20.653Z,81.28
2023-02-07T02:43:20.643Z,81.38
2023-02-07T02:44:20.658Z,81.49
2023-02-07T02:45:20.598Z,81.42
2023-02-07T02:46:20.665Z,81.52
2023-02-07T02:47:20.601Z,81.63
2023-02-07T02:48:20.642Z,81.73
2023-02-07T02:49:20.614Z,81.73
2023-02-07T02:50:20.591Z,81.73
2023-02-07T02:51:20.545Z,81.95
2023-02-07T02:52:20.569Z,82.05
2023-02-07T02:53:20.570Z,81.95
2023-02-07T02:54:20.539Z,81.95
2023-02-07T02:55:20.537Z,81.95
2023-02-07T02:56:20.536Z,81.90
2023-02-07T02:57:20.511Z,81.84
2023-02-07T02:58:20.498Z,81.73
2023-02-07T02:59:20.460Z,81.73
2023-02-07T03:00:20.477Z,81.73
2023-02-07T03:01:20.468Z,81.73
2023-02-07T03:02:20.477Z,81.73
2023-02-07T03:03:20.440Z,81.84
2023-02-07T03:04:20.437Z,81.95
2023-02-07T03:05:20.509Z,82.15
2023-02-07T03:06:20.424Z,82.15
2023-02-07T03:07:21.906Z,82.26
2023-02-07T03:08:20.404Z,82.26
2023-02-07T03:09:20.364Z,82.15
2023-02-07T03:10:20.381Z,82.29
2023-02-07T03:11:20.359Z,82.50
2023-02-07T03:12:20.367Z,82.71
2023-02-07T03:13:20.307Z,82.71
2023-02-07T03:14:20.344Z,82.92
2023-02-07T03:15:20.304Z,82.92
2023-02-07T03:16:20.341Z,82.82
2023-02-07T03:17:20.299Z,82.60
2023-02-07T03:18:20.293Z,82.60
2023-02-07T03:19:20.289Z,82.46
2023-02-07T03:20:20.310Z,82.46
2023-02-07T03:21:20.256Z,82.36
2023-02-07T03:22:20.287Z,82.26
2023-02-07T03:23:20.217Z,82.15
2023-02-07T03:24:20.206Z,82.19
2023-02-07T03:25:20.183Z,82.19
2023-02-07T03:26:20.196Z,82.19
2023-02-07T03:27:20.170Z,82.19
2023-02-07T03:28:20.295Z,82.40
2023-02-07T03:29:20.180Z,82.60
2023-02-07T03:30:20.150Z,82.75
2023-02-07T03:31:20.131Z,82.86
2023-02-07T03:32:20.123Z,83.17
2023-02-07T03:33:20.101Z,83.38
2023-02-07T03:34:20.103Z,83.17
2023-02-07T03:35:20.081Z,83.06
2023-02-07T03:36:20.094Z,83.06
2023-02-07T03:37:20.040Z,83.06
2023-02-07T03:38:20.077Z,83.06
2023-02-07T03:39:20.023Z,83.17
2023-02-07T03:40:20.084Z,83.06
2023-02-07T03:41:20.044Z,82.86
2023-02-07T03:42:19.981Z,82.75
2023-02-07T03:43:20.036Z,82.65
2023-02-07T03:44:20.024Z,82.54
2023-02-07T03:45:19.980Z,82.54
2023-02-07T03:46:20.003Z,82.54
2023-02-07T03:47:19.967Z,82.43
2023-02-07T03:48:19.918Z,82.33
2023-02-07T03:49:19.956Z,82.23
2023-02-07T03:50:19.910Z,82.23
2023-02-07T03:51:19.916Z,82.33
2023-02-07T03:52:19.923Z,82.43
2023-02-07T03:53:20.001Z,82.43
2023-02-07T03:54:19.869Z,82.43
2023-02-07T03:55:19.882Z,82.43
2023-02-07T03:56:19.924Z,82.54
2023-02-07T03:57:19.884Z,82.43
2023-02-07T03:58:19.801Z,82.33
2023-02-07T03:59:19.854Z,82.23
2023-02-07T04:00:19.857Z,82.12
2023-02-07T04:01:19.924Z,82.02
2023-02-07T04:02:19.867Z,81.92
2023-02-07T04:03:19.806Z,82.02
2023-02-07T04:04:19.759Z,82.12
2023-02-07T04:05:19.787Z,82.23
2023-02-07T04:06:19.747Z,82.33
2023-02-07T04:07:19.745Z,82.43
2023-02-07T04:08:19.709Z,82.47
2023-02-07T04:09:19.759Z,82.47
2023-02-07T04:10:19.688Z,82.37
2023-02-07T04:11:19.723Z,82.47
2023-02-07T04:12:19.692Z,82.58
2023-02-07T04:13:19.681Z,82.58
2023-02-07T04:14:19.663Z,82.37
2023-02-07T04:15:19.655Z,82.26
2023-02-07T04:16:19.693Z,82.37
2023-02-07T04:17:19.635Z,82.37
2023-02-07T04:18:19.657Z,82.37
2023-02-07T04:19:19.621Z,82.37
2023-02-07T04:20:19.607Z,82.37
2023-02-07T04:21:19.634Z,82.37
2023-02-07T04:22:19.550Z,82.37
2023-02-07T04:23:19.589Z,82.26
2023-02-07T04:24:19.616Z,82.16
2023-02-07T04:25:19.568Z,82.16
2023-02-07T04:26:19.528Z,82.06
2023-02-07T04:27:19.569Z,82.06
2023-02-07T04:28:19.556Z,81.95
2023-02-07T04:29:19.519Z,81.95
2023-02-07T04:30:19.569Z,82.16
2023-02-07T04:31:19.532Z,82.40
2023-02-07T04:32:19.456Z,82.51
2023-02-07T04:33:19.459Z,82.62
2023-02-07T04:34:19.423Z,82.79
2023-02-07T04:35:19.523Z,82.68
2023-02-07T04:36:19.435Z,82.58
2023-02-07T04:37:19.473Z,82.37
2023-02-07T04:38:19.397Z,82.20
2023-02-07T04:39:19.427Z,82.20
2023-02-07T04:40:19.374Z,82.40
2023-02-07T04:41:19.380Z,82.51
2023-02-07T04:42:19.339Z,82.62
2023-02-07T04:43:19.382Z,82.82
2023-02-07T04:44:19.316Z,83.03
2023-02-07T04:45:19.361Z,83.14
2023-02-07T04:46:19.293Z,83.14
2023-02-07T04:47:19.329Z,83.14
2023-02-07T04:48:19.295Z,83.14
2023-02-07T04:49:19.389Z,83.14
2023-02-07T04:50:19.263Z,83.25
2023-02-07T04:51:19.278Z,83.14
2023-02-07T04:52:19.226Z,83.03
2023-02-07T04:53:19.247Z,83.03
2023-02-07T04:54:19.463Z,82.82
2023-02-07T04:55:19.247Z,82.72
2023-02-07T04:56:19.219Z,82.72
2023-02-07T04:57:19.206Z,82.51
2023-02-07T04:58:19.184Z,82.51
2023-02-07T04:59:19.189Z,82.62
2023-02-07T05:00:19.154Z,82.62
2023-02-07T05:01:19.198Z,82.51
2023-02-07T05:02:19.175Z,82.51
2023-02-07T05:03:19.156Z,82.65
2023-02-07T05:04:19.243Z,82.86
2023-02-07T05:05:19.165Z,83.18
2023-02-07T05:06:19.160Z,83.28
2023-02-07T05:07:19.106Z,83.39
2023-02-07T05:08:19.058Z,83.59
2023-02-07T05:09:19.083Z,83.64
2023-02-07T05:10:20.035Z,83.84
2023-02-07T05:11:19.052Z,84.05
2023-02-07T05:12:19.087Z,84.05
2023-02-07T05:13:19.071Z,84.16
2023-02-07T05:14:19.023Z,84.16
2023-02-07T05:15:19.046Z,84.05
2023-02-07T05:16:19.081Z,84.16
2023-02-07T05:17:18.992Z,84.27
2023-02-07T05:18:18.961Z,84.27
2023-02-07T05:19:18.996Z,84.27
2023-02-07T05:20:18.943Z,84.27
2023-02-07T05:21:18.969Z,84.27
2023-02-07T05:22:18.920Z,84.37
2023-02-07T05:23:18.954Z,84.47
2023-02-07T05:24:19.894Z,84.51
2023-02-07T05:25:18.901Z,84.62
2023-02-07T05:26:18.871Z,85.25
2023-02-07T05:27:18.884Z,85.81
2023-02-07T05:28:18.912Z,85.98
2023-02-07T05:29:18.878Z,86.08
2023-02-07T05:30:18.848Z,85.98
2023-02-07T05:31:18.945Z,85.77
2023-02-07T05:32:18.839Z,85.46
2023-02-07T05:33:18.821Z,85.35
2023-02-07T05:34:18.802Z,85.25
2023-02-07T05:35:18.831Z,85.14
2023-02-07T05:36:18.785Z,84.93
2023-02-07T05:37:18.803Z,84.83
2023-02-07T05:38:18.792Z,84.93
2023-02-07T05:39:18.767Z,84.93
2023-02-07T05:40:18.728Z,84.83
2023-02-07T05:41:18.726Z,85.18
2023-02-07T05:42:18.704Z,85.60
2023-02-07T05:43:18.759Z,85.71
2023-02-07T05:44:18.670Z,86.02
2023-02-07T05:45:18.722Z,86.12
2023-02-07T05:46:18.681Z,86.02
2023-02-07T05:47:18.652Z,85.91
2023-02-07T05:48:18.624Z,85.88
2023-02-07T05:49:18.636Z,85.77
2023-02-07T05:50:18.643Z,85.66
2023-02-07T05:51:18.695Z,85.46
2023-02-07T05:52:18.588Z,85.60
2023-02-07T05:53:18.620Z,86.02
2023-02-07T05:54:18.562Z,86.23
2023-02-07T05:55:18.607Z,86.54
2023-02-07T05:56:18.543Z,86.76
2023-02-07T05:57:18.550Z,86.54
2023-02-07T05:58:18.575Z,86.44
2023-02-07T05:59:18.528Z,86.33
2023-02-07T06:00:18.544Z,86.23
2023-02-07T06:01:18.993Z,85.88
2023-02-07T06:02:18.513Z,85.56
2023-02-07T06:03:19.048Z,85.14
2023-02-07T06:04:18.448Z,84.83
2023-02-07T06:05:18.475Z,84.83
2023-02-07T06:06:18.444Z,84.93
2023-02-07T06:07:18.449Z,84.93
2023-02-07T06:08:18.418Z,84.83
2023-02-07T06:09:18.996Z,84.72
2023-02-07T06:10:18.956Z,84.51
2023-02-07T06:11:18.431Z,84.30
2023-02-07T06:12:18.356Z,84.09
2023-02-07T06:13:18.393Z,83.98
2023-02-07T06:14:20.808Z,83.88
2023-02-07T06:15:18.390Z,83.88
2023-02-07T06:16:18.427Z,83.78
2023-02-07T06:17:18.410Z,83.78
2023-02-07T06:18:18.316Z,83.88
2023-02-07T06:19:18.380Z,83.98
2023-02-07T06:20:18.318Z,83.88
2023-02-07T06:21:18.290Z,83.88
2023-02-07T06:22:18.263Z,83.88
2023-02-07T06:23:18.270Z,83.88
2023-02-07T06:24:18.292Z,83.78
2023-02-07T06:25:20.440Z,83.67
2023-02-07T06:26:18.226Z,83.67
2023-02-07T06:27:18.244Z,85.35
2023-02-07T06:28:18.300Z,86.71
2023-02-07T06:29:18.211Z,85.14
2023-02-07T06:30:18.166Z,84.09
2023-02-07T06:31:18.314Z,83.67
2023-02-07T06:32:18.151Z,83.67
2023-02-07T06:33:18.172Z,83.78
2023-02-07T06:34:18.142Z,83.78
2023-02-07T06:35:18.167Z,83.81
2023-02-07T06:36:18.099Z,83.92
2023-02-07T06:37:18.169Z,84.03
2023-02-07T06:38:18.102Z,84.13
2023-02-07T06:39:18.156Z,84.23
2023-02-07T06:40:18.088Z,83.92
2023-02-07T06:41:18.092Z,83.92
2023-02-07T06:42:18.031Z,83.81
2023-02-07T06:43:18.061Z,83.96
2023-02-07T06:44:18.035Z,84.13
2023-02-07T06:45:18.056Z,84.38
2023-02-07T06:46:18.111Z,84.69
2023-02-07T06:47:18.033Z,84.97
2023-02-07T06:48:18.005Z,84.97
2023-02-07T06:49:18.005Z,84.76
2023-02-07T06:50:18.014Z,84.66
2023-02-07T06:51:17.958Z,84.44
2023-02-07T06:52:17.940Z,84.13
2023-02-07T06:53:18.003Z,84.13
2023-02-07T06:54:17.966Z,84.23
2023-02-07T06:55:17.930Z,84.38
2023-02-07T06:56:18.752Z,84.44
2023-02-07T06:57:17.968Z,84.48
2023-02-07T06:58:17.879Z,84.27
2023-02-07T06:59:17.926Z,84.17
2023-02-07T07:00:17.858Z,84.17
2023-02-07T07:01:17.889Z,84.27
2023-02-07T07:02:17.912Z,84.38
2023-02-07T07:03:17.833Z,84.34
2023-02-07T07:04:17.850Z,84.23
2023-02-07T07:05:17.833Z,84.13
2023-02-07T07:06:17.812Z,84.13
2023-02-07T07:07:17.826Z,84.03
2023-02-07T07:08:17.819Z,83.92
2023-02-07T07:09:17.809Z,83.81
2023-02-07T07:10:17.771Z,83.71
2023-02-07T07:11:17.753Z,83.61
2023-02-07T07:12:17.763Z,83.61
2023-02-07T07:13:17.750Z,83.50
2023-02-07T07:14:17.720Z,83.50
2023-02-07T07:15:17.716Z,83.54
2023-02-07T07:16:17.731Z,83.75
2023-02-07T07:17:17.739Z,83.96
2023-02-07T07:18:17.670Z,84.17
2023-02-07T07:19:17.724Z,84.38
2023-02-07T07:20:17.637Z,84.38
2023-02-07T07:21:17.658Z,84.59
2023-02-07T07:22:18.723Z,84.69
2023-02-07T07:23:17.675Z,84.55
2023-02-07T07:24:17.604Z,84.55
2023-02-07T07:25:17.683Z,84.55
2023-02-07T07:26:17.572Z,84.55
2023-02-07T07:27:17.592Z,84.34
2023-02-07T07:28:17.592Z,84.34
2023-02-07T07:29:17.584Z,84.44
2023-02-07T07:30:17.531Z,84.34
2023-02-07T07:31:17.640Z,84.34
2023-02-07T07:33:18.539Z,84.44
2023-02-07T07:34:17.507Z,84.34
2023-02-07T07:35:18.848Z,84.23
2023-02-07T07:36:17.519Z,84.09
2023-02-07T07:37:17.482Z,84.09
2023-02-07T07:38:17.439Z,84.09
2023-02-07T07:39:17.491Z,84.09
2023-02-07T07:40:17.495Z,84.09
2023-02-07T07:41:17.447Z,83.98
2023-02-07T07:42:17.398Z,83.98
2023-02-07T07:43:17.412Z,83.88
2023-02-07T07:44:17.386Z,83.88
2023-02-07T07:45:17.402Z,83.74
2023-02-07T07:46:17.400Z,83.64
2023-02-07T07:47:17.353Z,83.64
2023-02-07T07:48:17.404Z,83.74
2023-02-07T07:49:17.375Z,83.84
2023-02-07T07:50:17.308Z,83.59
2023-02-07T07:51:17.383Z,83.49
2023-02-07T07:52:17.313Z,83.39
2023-02-07T07:53:17.297Z,83.18
2023-02-07T07:54:17.281Z,83.18
2023-02-07T07:55:17.317Z,83.07
2023-02-07T07:56:17.288Z,82.93
2023-02-07T07:57:17.366Z,82.82
2023-02-07T07:58:17.276Z,82.72
2023-02-07T07:59:23.997Z,82.62
2023-02-07T08:00:18.312Z,82.51
2023-02-07T08:01:17.276Z,82.40
2023-02-07T08:02:17.215Z,82.20
2023-02-07T08:03:17.236Z,82.20
2023-02-07T08:04:17.221Z,82.09
2023-02-07T08:05:17.151Z,81.88
2023-02-07T08:06:17.213Z,81.78
2023-02-07T08:07:17.135Z,81.53
2023-02-07T08:08:17.159Z,81.53
2023-02-07T08:09:17.111Z,81.63
2023-02-07T08:10:17.173Z,81.63
2023-02-07T08:11:17.145Z,81.74
2023-02-07T08:12:17.122Z,81.70
2023-02-07T08:13:17.100Z,81.70
2023-02-07T08:14:17.162Z,81.39
2023-02-07T08:15:17.030Z,80.97
2023-02-07T08:16:17.097Z,80.55
2023-02-07T08:17:17.041Z,80.45
2023-02-07T08:18:17.052Z,80.45
2023-02-07T08:19:17.042Z,80.35
2023-02-07T08:20:17.024Z,80.24
2023-02-07T08:21:17.048Z,80.35
2023-02-07T08:22:17.001Z,80.55
2023-02-07T08:23:16.989Z,80.66
2023-02-07T08:24:17.034Z,80.55
2023-02-07T08:25:16.975Z,80.87
2023-02-07T08:26:16.946Z,81.07
2023-02-07T08:27:16.934Z,81.18
2023-02-07T08:28:17.054Z,81.07
2023-02-07T08:29:16.900Z,81.04
2023-02-07T08:30:16.954Z,80.73
2023-02-07T08:31:17.058Z,80.52
2023-02-07T08:32:16.905Z,80.31
2023-02-07T08:33:16.864Z,79.75
2023-02-07T08:34:16.860Z,79.64
2023-02-07T08:35:16.843Z,79.54
2023-02-07T08:36:16.878Z,79.22
2023-02-07T08:37:16.837Z,78.91
2023-02-07T08:38:16.916Z,78.91
2023-02-07T08:39:16.816Z,78.70
2023-02-07T08:40:16.841Z,78.67
2023-02-07T08:41:16.786Z,78.56
2023-02-07T08:42:16.776Z,78.14
2023-02-07T08:43:16.741Z,77.83
2023-02-07T08:44:16.754Z,77.51
2023-02-07T08:45:16.764Z,77.41
2023-02-07T08:46:16.784Z,77.41
2023-02-07T08:47:17.925Z,77.31
2023-02-07T08:48:16.708Z,77.10
2023-02-07T08:49:16.685Z,77.10
2023-02-07T08:50:16.713Z,77.10
2023-02-07T08:51:16.702Z,77.31
2023-02-07T08:52:16.686Z,77.41
2023-02-07T08:53:16.652Z,77.41
2023-02-07T08:54:16.644Z,77.51
2023-02-07T08:55:16.644Z,77.41
2023-02-07T08:56:16.666Z,77.27
2023-02-07T08:57:16.591Z,77.17
2023-02-07T08:58:16.646Z,77.06
2023-02-07T08:59:16.604Z,77.17
2023-02-07T09:00:16.593Z,76.96
2023-02-07T09:01:16.844Z,76.65
2023-02-07T09:02:16.590Z,76.75
2023-02-07T09:03:17.505Z,76.96
2023-02-07T09:04:16.578Z,76.96
2023-02-07T09:05:16.517Z,76.75
2023-02-07T09:06:16.521Z,76.75
2023-02-07T09:07:16.476Z,76.75
2023-02-07T09:08:16.514Z,76.65
2023-02-07T09:09:16.540Z,76.65
2023-02-07T09:10:16.680Z,76.54
2023-02-07T09:11:16.508Z,76.72
2023-02-07T09:12:16.456Z,76.72
2023-02-07T09:13:16.416Z,76.51
2023-02-07T09:14:16.445Z,76.40
2023-02-07T09:15:16.387Z,76.30
2023-02-07T09:16:16.467Z,76.40
2023-02-07T09:17:16.376Z,76.51
2023-02-07T09:18:16.409Z,76.37
2023-02-07T09:19:16.339Z,75.95
2023-02-07T09:20:16.404Z,75.85
2023-02-07T09:21:16.371Z,75.95
2023-02-07T09:22:16.363Z,75.95
2023-02-07T09:23:16.324Z,75.74
2023-02-07T09:24:17.270Z,75.53
2023-02-07T09:25:17.270Z,75.53
2023-02-07T09:26:16.304Z,75.01
2023-02-07T09:27:16.314Z,74.60
2023-02-07T09:28:16.359Z,74.38
2023-02-07T09:29:16.261Z,74.49
2023-02-07T09:30:16.250Z,74.42
2023-02-07T09:31:16.308Z,74.63
2023-02-07T09:32:16.230Z,75.05
2023-02-07T09:33:16.207Z,75.36
2023-02-07T09:34:16.225Z,75.57
2023-02-07T09:35:16.175Z,75.78
2023-02-07T09:36:16.342Z,75.95
2023-02-07T09:37:16.180Z,75.85
2023-02-07T09:38:16.241Z,75.53
2023-02-07T09:39:16.273Z,75.63
2023-02-07T09:40:16.157Z,75.43
2023-02-07T09:41:16.105Z,75.32
2023-02-07T09:42:16.154Z,75.12
2023-02-07T09:43:16.313Z,75.01
2023-02-07T09:44:17.257Z,74.98
2023-02-07T09:45:16.256Z,75.08
2023-02-07T09:46:16.192Z,74.98
2023-02-07T09:47:16.054Z,74.98
2023-02-07T09:48:16.081Z,74.66
2023-02-07T09:49:16.048Z,74.25
2023-02-07T09:50:16.074Z,74.25
2023-02-07T09:51:16.003Z,74.25
2023-02-07T09:52:16.026Z,74.15
2023-02-07T09:53:16.805Z,74.04
2023-02-07T09:54:15.981Z,73.80
2023-02-07T09:55:16.005Z,73.80
2023-02-07T09:56:15.965Z,73.49
2023-02-07T09:57:16.179Z,73.17
2023-02-07T09:58:15.971Z,73.07
2023-02-07T09:59:15.905Z,73.38
2023-02-07T10:00:15.937Z,73.45
2023-02-07T10:01:16.014Z,73.14
2023-02-07T10:02:16.874Z,73.03
2023-02-07T10:03:15.883Z,73.03
2023-02-07T10:04:15.878Z,73.03
2023-02-07T10:05:15.841Z,72.83
2023-02-07T10:06:18.551Z,72.83
2023-02-07T10:07:15.807Z,72.72
2023-02-07T10:08:15.854Z,72.62
2023-02-07T10:09:15.803Z,72.51
2023-02-07T10:10:15.835Z,72.51
2023-02-07T10:11:15.788Z,72.51
2023-02-07T10:12:15.824Z,72.51
2023-02-07T10:13:15.778Z,72.41
2023-02-07T10:14:15.762Z,72.93
2023-02-07T10:15:15.729Z,73.03
2023-02-07T10:16:15.738Z,73.03
2023-02-07T10:17:25.793Z,72.93
2023-02-07T10:18:16.732Z,73.14
2023-02-07T10:19:15.746Z,72.93
2023-02-07T10:20:15.762Z,72.72
2023-02-07T10:21:15.658Z,72.83
2023-02-07T10:22:15.680Z,73.03
2023-02-07T10:23:15.651Z,73.03
2023-02-07T10:24:15.661Z,72.93
2023-02-07T10:25:15.633Z,73.03
2023-02-07T10:26:15.667Z,72.83
2023-02-07T10:27:15.593Z,72.62
2023-02-07T10:28:15.689Z,72.62
2023-02-07T10:29:15.606Z,72.51
2023-02-07T10:30:15.591Z,72.48
2023-02-07T10:31:16.648Z,72.58
2023-02-07T10:32:15.559Z,72.48
2023-02-07T10:33:15.551Z,72.27
2023-02-07T10:34:15.605Z,72.38
2023-02-07T10:35:15.548Z,72.48
2023-02-07T10:36:15.560Z,72.72
2023-02-07T10:37:15.510Z,72.79
2023-02-07T10:38:15.533Z,72.58
2023-02-07T10:39:15.484Z,72.27
2023-02-07T10:40:15.505Z,72.58
2023-02-07T10:41:15.451Z,72.48
2023-02-07T10:42:15.496Z,72.38
2023-02-07T10:43:15.447Z,72.38
2023-02-07T10:44:15.449Z,72.58
2023-02-07T10:45:15.449Z,72.38
2023-02-07T10:46:15.576Z,72.27
2023-02-07T10:47:15.428Z,72.38
2023-02-07T10:48:15.448Z,72.38
2023-02-07T10:49:15.359Z,72.38
2023-02-07T10:50:18.685Z,72.69
2023-02-07T10:51:16.395Z,72.79
2023-02-07T10:52:15.382Z,72.69
2023-02-07T10:53:15.356Z,72.48
2023-02-07T10:54:15.327Z,72.27
2023-02-07T10:55:15.321Z,71.86
2023-02-07T10:56:15.320Z,71.86
2023-02-07T10:57:15.273Z,71.96
2023-02-07T10:58:22.844Z,71.86
2023-02-07T10:59:16.272Z,71.96
2023-02-07T11:00:15.277Z,71.75
2023-02-07T11:01:15.275Z,71.65
2023-02-07T11:02:16.260Z,71.44
2023-02-07T11:03:15.204Z,71.33
2023-02-07T11:04:15.212Z,70.92
2023-02-07T11:05:15.194Z,71.23
2023-02-07T11:06:15.207Z,71.44
2023-02-07T11:07:16.148Z,71.65
2023-02-07T11:08:15.173Z,71.86
2023-02-07T11:09:15.150Z,71.92
2023-02-07T11:10:15.164Z,71.72
2023-02-07T11:11:15.129Z,71.20
2023-02-07T11:12:15.132Z,70.68
2023-02-07T11:13:15.093Z,70.57
2023-02-07T11:14:15.092Z,70.54
2023-02-07T11:15:15.100Z,70.43
2023-02-07T11:16:15.101Z,69.92
2023-02-07T11:17:15.061Z,69.81
2023-02-07T11:18:15.057Z,69.71
2023-02-07T11:19:15.042Z,69.71
2023-02-07T11:20:15.089Z,69.60
2023-02-07T11:21:14.999Z,69.60
2023-02-07T11:22:15.014Z,69.57
2023-02-07T11:23:14.978Z,69.57
2023-02-07T11:24:14.977Z,69.47
2023-02-07T11:25:14.966Z,68.63
2023-02-07T11:26:14.973Z,68.43
2023-02-07T11:27:15.053Z,68.43
2023-02-07T11:28:15.026Z,68.43
2023-02-07T11:29:14.945Z,68.32
2023-02-07T11:30:15.918Z,68.22
2023-02-07T11:31:15.090Z,68.01
2023-02-07T11:32:14.899Z,67.88
2023-02-07T11:33:14.863Z,67.88
2023-02-07T11:34:14.913Z,67.67
2023-02-07T11:35:14.880Z,67.15
2023-02-07T11:36:15.846Z,67.36
2023-02-07T11:37:14.844Z,67.77
2023-02-07T11:38:14.865Z,67.98
2023-02-07T11:39:14.811Z,68.19
2023-02-07T11:40:14.818Z,67.98
2023-02-07T11:41:14.797Z,67.57
2023-02-07T11:42:14.829Z,67.12
2023-02-07T11:43:14.773Z,66.81
2023-02-07T11:44:14.817Z,66.28
2023-02-07T11:45:14.748Z,66.28
2023-02-07T11:46:14.811Z,66.39
2023-02-07T11:47:14.745Z,66.18
2023-02-07T11:48:14.732Z,66.08
2023-02-07T11:49:14.701Z,66.08
2023-02-07T11:50:14.701Z,66.28
2023-02-07T11:51:14.738Z,66.28
2023-02-07T11:52:14.698Z,66.28
2023-02-07T11:53:14.654Z,65.97
2023-02-07T11:54:14.671Z,66.08
2023-02-07T11:55:14.652Z,66.08
2023-02-07T11:56:14.643Z,65.77
2023-02-07T11:57:14.614Z,65.97
2023-02-07T11:58:14.627Z,66.39
2023-02-07T11:59:15.576Z,65.56
2023-02-07T12:00:14.597Z,65.56
2023-02-07T12:01:14.554Z,65.45
2023-02-07T12:02:14.613Z,65.14
2023-02-07T12:03:14.563Z,65.14
2023-02-07T12:04:14.582Z,65.17
2023-02-07T12:05:14.521Z,64.83
2023-02-07T12:06:14.533Z,64.94
2023-02-07T12:07:14.510Z,64.83
2023-02-07T12:08:14.515Z,64.62
2023-02-07T12:09:14.477Z,64.55
2023-02-07T12:10:14.494Z,64.65
2023-02-07T12:11:14.486Z,65.17
2023-02-07T12:12:14.451Z,65.14
2023-02-07T12:13:14.472Z,64.73
2023-02-07T12:14:14.433Z,64.31
2023-02-07T12:15:14.440Z,64.42
2023-02-07T12:16:14.444Z,63.59
2023-02-07T12:17:14.404Z,63.35
2023-02-07T12:18:14.405Z,63.14
2023-02-07T12:19:14.385Z,62.93
2023-02-07T12:20:14.375Z,62.52
2023-02-07T12:21:14.369Z,61.07
2023-02-07T12:22:14.395Z,60.75
2023-02-07T12:23:40.400Z,60.86
2023-02-07T12:24:15.321Z,60.65
2023-02-07T12:25:14.335Z,59.19
2023-02-07T12:26:14.289Z,59.40
2023-02-07T12:27:14.311Z,60.10
2023-02-07T12:28:14.315Z,60.21
2023-02-07T12:29:14.300Z,60.00
2023-02-07T12:30:14.246Z,59.79
2023-02-07T12:31:14.490Z,59.58
2023-02-07T12:32:14.322Z,59.89
2023-02-07T12:33:14.243Z,60.08
2023-02-07T12:34:14.212Z,59.77
2023-02-07T12:35:14.230Z,59.56
2023-02-07T12:36:14.180Z,59.25
2023-02-07T12:37:14.214Z,58.73
2023-02-07T12:38:14.193Z,58.62
2023-02-07T12:39:14.168Z,58.83
2023-02-07T12:40:14.185Z,58.83
2023-02-07T12:41:14.159Z,59.04
2023-02-07T12:42:15.618Z,58.31
2023-02-07T12:43:14.137Z,57.59
2023-02-07T12:44:14.109Z,57.59
2023-02-07T12:45:14.124Z,57.28
2023-02-07T12:46:14.207Z,57.35
2023-02-07T12:47:14.084Z,57.38
2023-02-07T12:48:14.056Z,57.48
2023-02-07T12:49:14.094Z,57.48
2023-02-07T12:50:14.084Z,57.04
2023-02-07T12:51:14.089Z,57.56
2023-02-07T12:52:14.044Z,57.56
2023-02-07T12:53:14.024Z,57.56